Time;durP1;ratioP1;P1;durP2;ratioP2;P2;SDS_P1;SDS_P2;PMS_P1;PMS_P2;Temp;Humidity;BMP_temperature;BMP_pressure;BME280_temperature;BME280_humidity;BME280_pressure;Samples;Min_cycle;Max_cycle;Signal;HPM_P1;HPM_P2
2022/11/11 00:02:10;;;;;;;0.85;0.82;;;;;;;1.42;69.88;97511.94;6198545;28;20117;-73
2022/11/11 00:05:12;;;;;;;0.70;0.70;;;;;;;1.44;69.71;97525.69;6200539;28;20034;-71
2022/11/11 00:08:20;;;;;;;0.80;0.80;;;;;;;1.44;70.26;97515.31;6195575;28;20515;-71
2022/11/11 00:11:28;;;;;;;1.13;0.80;;;;;;;1.55;69.34;97505.59;6176312;28;20047;-70
2022/11/11 00:14:31;;;;;;;1.58;1.08;;;;;;;1.52;69.20;97508.25;6195119;28;20046;-70
2022/11/11 00:27:46;;;;;;;0.70;0.70;;;;;;;1.65;68.85;97478.63;6194935;28;20470;-70
2022/11/11 00:30:47;;;;;;;1.13;0.80;;;;;;;1.56;69.31;97486.59;6195092;28;20050;-71
2022/11/11 00:33:56;;;;;;;0.70;0.70;;;;;;;1.39;70.39;97488.63;6195019;28;20042;-71
2022/11/11 00:37:00;;;;;;;1.02;0.93;;;;;;;1.38;70.12;97473.94;6196563;28;20038;-70
2022/11/11 00:40:03;;;;;;;1.08;0.68;;;;;;;1.57;69.98;97481.34;6196558;28;20127;-70
2022/11/11 00:43:07;;;;;;;0.95;0.80;;;;;;;1.53;69.86;97478.88;6177229;28;20057;-70
2022/11/11 00:52:58;;;;;;;0.80;0.80;;;;;;;1.56;69.90;97491.78;6194124;28;20042;-69
2022/11/11 00:56:02;;;;;;;0.85;0.80;;;;;;;1.54;70.16;97483.16;6197897;28;20054;-69
2022/11/11 00:59:06;;;;;;;1.60;1.15;;;;;;;1.61;69.93;97497.69;6196182;28;20065;-69
2022/11/11 01:02:10;;;;;;;;;;;;;;;1.83;69.04;97481.72;6197654;28;20603;-70
2022/11/11 01:05:14;;;;;;;0.93;0.70;;;;;;;1.62;69.50;97478.69;6197401;28;19921;-69
2022/11/11 01:08:23;;;;;;;0.50;0.50;;;;;;;1.54;69.46;97485.75;6198019;28;20043;-68
2022/11/11 01:11:30;;;;;;;0.60;0.60;;;;;;;1.45;69.93;97475.56;6198049;28;20121;-69
2022/11/11 01:14:31;;;;;;;0.70;0.70;;;;;;;1.30;70.52;97482.75;6196451;28;20042;-69
2022/11/11 01:17:35;;;;;;;0.70;0.70;;;;;;;1.34;70.42;97484.38;6197453;28;20046;-69
2022/11/11 01:20:42;;;;;;;0.73;0.73;;;;;;;1.30;70.63;97484.44;6194873;28;20050;-69
2022/11/11 01:23:49;;;;;;;0.60;0.60;;;;;;;1.16;70.94;97489.91;6197944;28;20043;-68
2022/11/11 01:26:50;;;;;;;0.60;0.60;;;;;;;1.18;71.23;97479.50;6196573;28;20070;-68
2022/11/11 01:29:57;;;;;;;1.13;0.90;;;;;;;1.05;71.92;97481.47;6194586;28;20133;-70
2022/11/11 01:33:03;;;;;;;0.80;0.80;;;;;;;0.99;72.22;97476.38;6196180;28;20083;-69
2022/11/11 01:36:09;;;;;;;0.95;0.70;;;;;;;0.97;72.25;97483.34;6177909;28;20121;-69
2022/11/11 01:39:10;;;;;;;0.98;0.98;;;;;;;0.96;71.73;97476.41;6192145;28;20663;-68
2022/11/11 01:42:14;;;;;;;1.02;0.90;;;;;;;0.90;71.94;97473.06;6188778;28;20038;-69
2022/11/11 01:45:44;;;;;;;0.93;0.93;;;;;;;0.96;72.10;97472.09;6183199;28;20049;-68
2022/11/11 01:52:22;;;;;;;1.20;0.90;;;;;;;0.81;73.07;97473.22;6183205;28;20050;-69
2022/11/11 01:55:31;;;;;;;1.27;1.17;;;;;;;0.82;73.27;97467.16;6183156;28;20042;-69
2022/11/11 01:58:37;;;;;;;1.08;0.98;;;;;;;0.83;73.54;97466.28;6186641;28;20043;-69
2022/11/11 02:01:41;;;;;;;1.30;0.75;;;;;;;0.86;73.17;97462.78;6183572;28;20141;-69
2022/11/11 02:08:12;;;;;;;1.60;1.10;;;;;;;0.73;73.81;97464.72;6183951;28;20133;-68
2022/11/11 02:14:34;;;;;;;1.00;1.00;;;;;;;0.79;73.41;97464.63;6184502;28;20398;-69
2022/11/11 02:14:48;;;;;;;1.35;1.20;;;;;;;0.88;73.74;97472.25;6179154;28;20512;-68
2022/11/11 02:17:50;;;;;;;1.83;1.42;;;;;;;0.86;73.60;97471.41;6178104;28;20050;-68
2022/11/11 02:20:57;;;;;;;1.10;1.00;;;;;;;0.87;73.88;97469.66;6179858;28;20560;-68
2022/11/11 02:24:14;;;;;;;0.93;0.82;;;;;;;0.89;73.47;97466.16;6179837;28;20464;-69
2022/11/11 02:27:21;;;;;;;1.05;0.95;;;;;;;0.64;73.90;97459.69;6176244;28;20052;-68
2022/11/11 02:30:28;;;;;;;1.05;1.00;;;;;;;0.76;74.25;97459.47;6177889;28;20050;-69
2022/11/11 02:33:34;;;;;;;1.30;1.20;;;;;;;0.63;74.21;97468.34;6179477;28;20081;-69
2022/11/11 02:36:41;;;;;;;1.38;0.93;;;;;;;0.90;73.78;97480.81;6181782;28;20101;-69
2022/11/11 02:39:47;;;;;;;0.90;0.90;;;;;;;1.00;72.80;97468.59;6179631;28;20089;-69
2022/11/11 02:42:49;;;;;;;1.25;1.15;;;;;;;0.75;74.05;97468.13;6178327;28;20046;-69
2022/11/11 02:45:55;;;;;;;2.15;1.92;;;;;;;0.60;74.73;97478.75;6177817;28;20057;-69
2022/11/11 02:49:01;;;;;;;2.33;1.60;;;;;;;0.71;74.38;97481.16;6176113;28;20429;-69
2022/11/11 02:52:08;;;;;;;2.08;1.77;;;;;;;0.64;74.47;97480.41;6177599;28;20050;-68
2022/11/11 02:55:10;;;;;;;2.53;1.85;;;;;;;0.64;74.43;97480.41;6179032;28;20057;-68
2022/11/11 02:58:17;;;;;;;2.00;1.63;;;;;;;0.52;75.05;97470.25;6190673;28;20129;-68
2022/11/11 03:01:22;;;;;;;3.47;2.03;;;;;;;0.76;74.65;97469.84;6176547;28;20685;-68
2022/11/11 03:04:26;;;;;;;2.70;1.73;;;;;;;0.84;74.04;97462.78;6177617;28;20769;-69
2022/11/11 03:07:27;;;;;;;3.60;2.47;;;;;;;0.88;74.63;97464.47;6179776;28;20046;-69
2022/11/11 03:10:29;;;;;;;2.55;1.80;;;;;;;1.02;74.20;97476.31;6177759;28;20045;-68
2022/11/11 03:13:30;;;;;;;2.35;1.80;;;;;;;0.99;74.13;97460.81;6176818;28;20142;-69
2022/11/11 03:21:03;;;;;;;2.40;1.75;;;;;;;1.15;74.27;97483.00;6178458;28;20042;-69
2022/11/11 03:23:22;;;;;;;2.35;2.15;;;;;;;1.29;74.34;97475.81;6183994;28;20050;-69
2022/11/11 03:26:26;;;;;;;2.15;1.60;;;;;;;1.37;74.43;97461.88;6195696;28;20050;-68
2022/11/11 03:29:29;;;;;;;1.73;1.63;;;;;;;1.46;73.79;97482.44;6193705;28;20042;-68
2022/11/11 03:32:39;;;;;;;2.30;1.80;;;;;;;1.50;73.51;97474.59;6185116;28;20042;-69
2022/11/11 03:35:48;;;;;;;1.73;1.63;;;;;;;1.52;73.56;97477.13;6181516;28;20137;-69
2022/11/11 03:39:00;;;;;;;2.65;1.80;;;;;;;1.58;73.48;97461.44;6177843;28;20050;-69
2022/11/11 03:42:08;;;;;;;2.00;1.77;;;;;;;1.66;73.80;97482.06;6181345;28;20042;-69
2022/11/11 03:45:16;;;;;;;1.63;1.52;;;;;;;1.84;72.84;97480.81;6176506;28;20042;-68
2022/11/11 03:48:20;;;;;;;1.67;1.58;;;;;;;1.82;73.37;97485.22;6177977;28;20046;-69
2022/11/11 03:51:21;;;;;;;1.20;1.10;;;;;;;1.82;73.20;97477.44;6180288;28;20066;-69
2022/11/11 03:54:25;;;;;;;1.60;1.08;;;;;;;1.92;72.98;97472.00;6179613;28;20469;-69
2022/11/11 03:57:32;;;;;;;1.85;1.23;;;;;;;2.04;72.53;97470.91;6176885;28;20038;-69
2022/11/11 04:00:38;;;;;;;2.08;1.35;;;;;;;2.04;72.61;97470.91;6176425;28;21011;-69
2022/11/11 04:10:41;;;;;;;1.88;1.50;;;;;;;2.05;72.68;97471.75;6182115;28;20804;-69
2022/11/11 04:17:08;;;;;;;1.75;0.95;;;;;;;2.04;73.35;97470.91;6183439;28;20046;-69
2022/11/11 04:23:30;;;;;;;2.63;2.15;;;;;;;1.99;73.44;97472.75;6181370;28;20425;-68
2022/11/11 04:26:31;;;;;;;2.38;1.73;;;;;;;1.87;73.69;97458.28;6180927;28;20050;-69
2022/11/11 04:29:35;;;;;;;3.00;2.63;;;;;;;2.06;73.49;97469.09;6181629;28;20512;-69
2022/11/11 04:32:41;;;;;;;3.03;1.83;;;;;;;2.07;74.01;97465.66;6184412;28;20047;-70
2022/11/11 04:35:51;;;;;;;2.00;1.55;;;;;;;2.08;74.06;97459.56;6182010;28;20096;-69
2022/11/11 04:42:19;;;;;;;2.90;2.20;;;;;;;2.00;74.36;97433.75;6179994;28;20624;-69
2022/11/11 04:45:34;;;;;;;6.85;3.65;;;;;;;2.11;74.32;97450.84;6181779;28;20054;-68
2022/11/11 04:48:38;;;;;;;2.42;1.60;;;;;;;2.05;75.22;97441.47;6182806;28;20038;-69
2022/11/11 04:58:30;;;;;;;2.47;1.77;;;;;;;2.42;74.01;97427.63;6197389;28;20441;-69
2022/11/11 05:05:01;;;;;;;3.53;1.73;;;;;;;2.56;72.92;97407.38;6181850;28;20042;-69
2022/11/11 05:11:35;;;;;;;2.50;1.80;;;;;;;2.78;72.67;97420.69;6178328;28;20053;-70
2022/11/11 05:21:30;;;;;;;2.33;1.50;;;;;;;3.40;70.19;97414.75;6181259;28;20063;-70
2022/11/11 05:27:57;;;;;;;2.05;1.63;;;;;;;3.49;68.81;97396.25;6180527;28;20054;-69
2022/11/11 05:30:59;;;;;;;1.38;1.13;;;;;;;3.47;68.88;97421.47;6178493;28;20521;-69
2022/11/11 05:34:03;;;;;;;1.92;1.25;;;;;;;3.43;68.90;97432.88;6181769;28;20034;-69
2022/11/11 05:37:09;;;;;;;1.65;1.55;;;;;;;3.48;69.10;97431.00;6179921;28;20038;-69
2022/11/11 05:40:11;;;;;;;2.50;1.65;;;;;;;3.66;68.93;97428.75;6180142;28;20468;-69
2022/11/11 05:43:13;;;;;;;1.73;1.52;;;;;;;4.00;67.84;97410.41;6181791;28;20451;-70
2022/11/11 05:46:16;;;;;;;1.40;1.30;;;;;;;4.07;67.28;97398.88;6180038;28;20046;-69
2022/11/11 05:49:18;;;;;;;0.95;0.88;;;;;;;4.31;67.09;97392.09;6180913;28;20054;-70
2022/11/11 05:52:24;;;;;;;1.20;0.98;;;;;;;4.70;65.14;97410.81;6183151;28;20061;-70
2022/11/11 05:55:27;;;;;;;2.53;0.88;;;;;;;4.85;64.43;97414.66;6163429;28;20540;-68
2022/11/11 05:58:29;;;;;;;2.60;1.50;;;;;;;4.87;64.13;97407.63;6179864;28;20050;-68
2022/11/11 06:01:33;;;;;;;1.42;1.33;;;;;;;4.82;64.07;97414.75;6177956;28;20050;-69
2022/11/11 06:04:40;;;;;;;1.70;1.60;;;;;;;4.82;64.04;97419.97;6181480;28;20050;-69
2022/11/11 06:07:41;;;;;;;1.35;1.20;;;;;;;4.82;64.08;97413.91;6176777;28;20046;-69
2022/11/11 06:10:42;;;;;;;2.13;1.65;;;;;;;4.79;64.15;97420.06;6178370;28;21161;-69
2022/11/11 06:13:50;;;;;;;2.70;1.88;;;;;;;4.77;64.23;97432.28;6177984;28;20046;-68
2022/11/11 06:16:53;;;;;;;2.80;1.90;;;;;;;4.83;64.57;97426.03;6177877;28;20062;-69
2022/11/11 06:20:00;;;;;;;2.25;1.80;;;;;;;5.01;63.84;97416.72;6178379;28;20054;-69
2022/11/11 06:23:09;;;;;;;3.78;2.30;;;;;;;5.37;62.52;97427.66;6190411;28;20500;-69
2022/11/11 06:26:15;;;;;;;4.60;2.80;;;;;;;5.40;62.38;97433.59;6194250;28;20042;-68
2022/11/11 06:29:22;;;;;;;5.20;3.20;;;;;;;6.27;61.25;97421.72;6195880;28;20416;-69
2022/11/11 06:32:27;;;;;;;4.10;2.67;;;;;;;9.64;54.57;97417.78;6193943;28;20046;-68
2022/11/11 06:35:31;;;;;;;5.03;2.83;;;;;;;9.71;52.41;97416.56;6196086;28;20066;-68
2022/11/11 06:38:33;;;;;;;4.30;2.55;;;;;;;8.25;53.57;97417.66;6196880;28;20046;-68
2022/11/11 06:41:37;;;;;;;2.00;1.80;;;;;;;7.14;56.84;97398.16;6194275;28;20050;-69
2022/11/11 06:44:41;;;;;;;;;;;;;;;6.91;57.00;97407.00;6188715;28;20165;-69
2022/11/11 06:47:48;;;;;;;1.40;1.13;;;;;;;6.26;58.52;97380.84;6193497;28;19925;-68
2022/11/11 06:50:50;;;;;;;1.55;1.20;;;;;;;5.95;59.32;97380.31;6194685;28;20626;-69
2022/11/11 06:53:56;;;;;;;1.02;0.93;;;;;;;5.77;60.26;97387.88;6195386;28;20056;-69
2022/11/11 06:57:09;;;;;;;1.45;1.35;;;;;;;5.75;60.19;97376.69;6194932;28;20133;-69
2022/11/11 07:00:11;;;;;;;2.08;1.85;;;;;;;5.67;61.07;97376.09;6189284;28;20149;-68
2022/11/11 07:03:18;;;;;;;1.40;1.15;;;;;;;5.74;61.36;97374.94;6194029;28;20050;-68
2022/11/11 07:06:32;;;;;;;1.98;1.60;;;;;;;5.85;61.42;97372.78;6195476;28;20042;-68
2022/11/11 07:09:41;;;;;;;1.75;1.65;;;;;;;6.14;61.37;97373.47;6195323;28;20046;-69
2022/11/11 07:12:43;;;;;;;1.65;1.55;;;;;;;6.59;60.35;97358.59;6183675;28;20408;-69
2022/11/11 07:15:50;;;;;;;1.30;1.20;;;;;;;6.83;59.17;97372.44;6179070;28;20756;-68
2022/11/11 07:18:59;;;;;;;1.27;1.17;;;;;;;6.83;59.33;97359.38;6177166;28;20061;-69
2022/11/11 07:22:09;;;;;;;1.38;1.08;;;;;;;6.73;59.23;97338.81;6179036;28;20042;-69
2022/11/11 07:25:14;;;;;;;1.95;1.55;;;;;;;6.33;60.39;97362.28;6179111;28;20485;-69
2022/11/11 07:28:18;;;;;;;2.03;1.52;;;;;;;6.01;61.42;97335.69;6180713;28;20105;-69
2022/11/11 07:31:24;;;;;;;2.30;1.63;;;;;;;5.84;62.20;97347.59;6178645;28;20197;-69
2022/11/11 07:34:30;;;;;;;1.73;1.33;;;;;;;6.04;61.56;97362.53;6182276;28;20425;-69
2022/11/11 07:37:38;;;;;;;3.30;2.00;;;;;;;5.78;61.89;97334.78;6183454;28;20097;-69
2022/11/11 07:40:46;;;;;;;3.35;2.67;;;;;;;5.45;63.09;97330.81;6183884;28;20062;-70
2022/11/11 07:43:51;;;;;;;2.05;1.90;;;;;;;5.46;63.63;97325.53;6182191;28;20053;-70
2022/11/11 07:46:52;;;;;;;2.17;1.92;;;;;;;5.22;64.41;97319.47;6181756;28;20047;-70
2022/11/11 07:49:57;;;;;;;2.80;1.90;;;;;;;5.15;65.07;97325.81;6183403;28;20054;-69
2022/11/11 07:53:01;;;;;;;2.33;1.98;;;;;;;5.15;65.09;97328.41;6184584;28;20049;-70
2022/11/11 07:56:05;;;;;;;2.35;1.80;;;;;;;5.18;65.12;97312.69;6182084;28;20086;-70
2022/11/11 07:59:08;;;;;;;1.58;1.48;;;;;;;5.29;64.74;97320.09;6184065;28;20681;-69
2022/11/11 08:02:13;;;;;;;2.95;2.42;;;;;;;5.09;65.51;97324.25;6181799;28;20054;-68
2022/11/11 08:05:16;;;;;;;1.52;1.38;;;;;;;5.10;65.42;97304.28;6181605;28;20524;-69
2022/11/11 08:08:25;;;;;;;2.08;1.48;;;;;;;5.04;65.90;97299.25;6182047;28;20042;-69
2022/11/11 08:14:48;;;;;;;1.88;1.30;;;;;;;5.00;66.37;97303.72;6178989;28;20093;-69
2022/11/11 08:17:58;;;;;;;2.10;1.83;;;;;;;4.86;66.23;97285.13;6180798;28;20050;-69
2022/11/11 08:21:03;;;;;;;3.45;2.35;;;;;;;4.92;66.14;97293.56;6181474;28;20102;-69
2022/11/11 08:24:10;;;;;;;2.22;2.03;;;;;;;5.04;65.81;97305.34;6181905;28;20065;-69
2022/11/11 08:27:17;;;;;;;2.53;2.33;;;;;;;5.00;65.96;97302.88;6178274;28;20054;-69
2022/11/11 08:30:28;;;;;;;2.97;2.33;;;;;;;4.86;66.09;97300.75;6185133;28;20432;-69
2022/11/11 08:33:32;;;;;;;2.90;2.40;;;;;;;5.03;65.67;97303.63;6190854;28;20470;-69
2022/11/11 08:36:39;;;;;;;3.60;2.45;;;;;;;4.89;66.01;97306.72;6196188;28;20413;-69
2022/11/11 08:39:41;;;;;;;2.72;2.53;;;;;;;4.89;66.18;97318.91;6196755;28;20137;-69
2022/11/11 08:42:54;;;;;;;4.38;2.35;;;;;;;4.87;65.35;97313.75;6198825;28;20060;-68
2022/11/11 08:46:04;;;;;;;2.53;1.67;;;;;;;4.86;65.29;97301.63;6194913;28;20047;-68
2022/11/11 08:49:08;;;;;;;3.22;2.53;;;;;;;4.86;65.09;97304.22;6195879;28;20520;-69
2022/11/11 08:52:19;;;;;;;3.85;2.53;;;;;;;4.85;65.01;97294.72;6162681;28;20050;-69
2022/11/11 08:55:23;;;;;;;2.47;2.28;;;;;;;4.63;65.58;97296.34;6185818;28;20046;-71
2022/11/11 08:58:34;;;;;;;2.28;1.73;;;;;;;4.63;65.33;97286.78;6180928;28;20042;-71
2022/11/11 09:01:44;;;;;;;2.70;2.20;;;;;;;4.62;65.89;97273.81;6178994;28;20050;-71
2022/11/11 09:04:53;;;;;;;3.35;2.50;;;;;;;4.59;65.37;97266.94;6183376;28;20417;-71
2022/11/11 09:07:54;;;;;;;2.60;2.30;;;;;;;4.63;65.17;97262.47;6182006;28;20034;-72
2022/11/11 09:11:00;;;;;;;4.78;2.95;;;;;;;4.50;65.54;97268.13;6180134;28;20050;-71
2022/11/11 09:14:02;;;;;;;3.65;2.33;;;;;;;4.61;65.50;97269.47;6179630;28;20046;-72
2022/11/11 09:17:06;;;;;;;2.47;1.83;;;;;;;4.76;64.65;97262.91;6179758;28;20054;-71
2022/11/11 09:20:08;;;;;;;2.17;1.92;;;;;;;4.61;64.86;97253.84;6181633;28;20583;-72
2022/11/11 09:23:14;;;;;;;3.30;2.30;;;;;;;4.54;65.53;97249.78;6193055;28;20042;-73
2022/11/11 09:26:16;;;;;;;2.72;1.88;;;;;;;4.64;65.14;97256.34;6179179;28;20058;-72
2022/11/11 09:29:20;;;;;;;;;;;;;;;4.80;64.86;97264.50;6182561;28;20054;-70
2022/11/11 09:32:22;;;;;;;3.63;2.50;;;;;;;4.55;65.12;97254.06;6180905;28;19922;-73
2022/11/11 09:35:26;;;;;;;3.28;2.13;;;;;;;4.53;65.69;97267.16;6181845;28;20073;-72
2022/11/11 09:38:33;;;;;;;3.00;2.38;;;;;;;4.64;65.69;97270.25;6179123;28;20046;-71
2022/11/11 09:42:15;;;;;;;2.03;1.65;;;;;;;4.61;65.36;97275.53;6180638;28;20533;-71
2022/11/11 09:45:27;;;;;;;2.38;1.92;;;;;;;4.47;65.86;97275.16;6183453;28;20501;-72
2022/11/11 09:49:01;;;;;;;3.03;2.50;;;;;;;4.44;66.23;97283.94;6183600;28;20049;-71
2022/11/11 09:52:17;;;;;;;2.40;2.20;;;;;;;4.59;65.96;97281.75;6182546;28;20042;-71
2022/11/11 09:55:36;;;;;;;2.63;2.38;;;;;;;4.54;65.96;97278.44;6178822;28;20464;-71
2022/11/11 09:58:45;;;;;;;2.40;2.20;;;;;;;4.50;66.20;97278.53;6182733;28;20046;-71
2022/11/11 10:01:54;;;;;;;3.80;2.50;;;;;;;4.55;66.16;97280.13;6181661;28;20045;-72
2022/11/11 10:05:14;;;;;;;4.07;2.20;;;;;;;4.72;65.86;97263.00;6179825;28;20042;-72
2022/11/11 10:08:18;;;;;;;2.42;2.10;;;;;;;4.67;65.44;97264.06;6180531;28;20630;-73
2022/11/11 10:11:47;;;;;;;3.42;2.60;;;;;;;4.70;65.49;97274.41;6168005;28;20068;-71
2022/11/11 10:14:51;;;;;;;5.10;2.53;;;;;;;4.61;65.85;97275.53;6180323;28;20283;-73
2022/11/11 10:18:00;;;;;;;5.22;3.10;;;;;;;4.76;65.31;97276.78;6183602;28;20501;-70
2022/11/11 10:21:13;;;;;;;4.03;3.00;;;;;;;4.59;65.56;97271.31;6196472;28;20512;-72
2022/11/11 10:24:39;;;;;;;5.07;2.97;;;;;;;4.72;65.40;97277.78;6205692;28;20080;-73
2022/11/11 10:27:43;;;;;;;6.15;3.97;;;;;;;4.61;65.47;97280.75;6173291;28;20058;-72
2022/11/11 10:30:51;;;;;;;4.70;3.35;;;;;;;4.67;65.18;97282.31;6195844;28;20051;-71
2022/11/11 10:34:01;;;;;;;3.88;3.15;;;;;;;4.65;65.25;97273.69;6192631;28;20129;-71
2022/11/11 10:37:18;;;;;;;5.45;3.60;;;;;;;4.61;65.59;97280.75;6195678;28;20082;-71
2022/11/11 10:40:28;;;;;;;3.38;2.33;;;;;;;4.81;65.05;97272.28;6196363;28;20068;-71
2022/11/11 10:43:30;;;;;;;4.63;3.50;;;;;;;4.65;65.59;97266.72;6196183;28;20428;-70
2022/11/11 10:46:49;;;;;;;4.00;2.70;;;;;;;4.73;65.44;97254.28;6184960;28;20041;-72
2022/11/11 10:50:08;;;;;;;3.72;3.00;;;;;;;4.58;66.04;97259.16;6179691;28;20038;-71
2022/11/11 10:53:12;;;;;;;3.90;2.60;;;;;;;4.57;66.14;97257.47;6178479;28;20050;-70
2022/11/11 10:56:25;;;;;;;2.72;2.35;;;;;;;4.58;66.33;97253.97;6176369;28;20050;-67
2022/11/11 10:59:34;;;;;;;2.40;1.90;;;;;;;4.62;66.32;97260.78;6180984;28;20100;-67
2022/11/11 11:03:03;;;;;;;3.15;2.60;;;;;;;4.84;65.30;97250.41;6178355;28;20053;-65
2022/11/11 11:06:23;;;;;;;3.15;2.50;;;;;;;4.76;65.73;97255.09;6176952;28;20046;-68
2022/11/11 11:09:56;;;;;;;3.53;2.53;;;;;;;4.70;66.21;97256.16;6178793;28;21224;-66
2022/11/11 11:13:07;;;;;;;3.75;2.80;;;;;;;4.63;66.31;97250.28;6182778;28;20061;-67
2022/11/11 11:16:16;;;;;;;4.82;2.78;;;;;;;4.62;66.40;97256.41;6182866;28;20046;-69
2022/11/11 11:19:27;;;;;;;3.58;2.97;;;;;;;4.68;66.15;97247.53;6199467;28;20145;-70
2022/11/11 11:23:08;;;;;;;3.78;3.20;;;;;;;4.70;66.19;97253.53;6182166;28;20050;-69
2022/11/11 11:26:16;;;;;;;3.47;2.80;;;;;;;4.72;66.46;97256.94;6109920;28;21386;-68
2022/11/11 11:29:25;;;;;;;5.03;2.90;;;;;;;4.67;66.40;97253.63;6183900;28;20172;-68
2022/11/11 11:32:31;;;;;;;3.95;2.88;;;;;;;4.78;66.21;97254.09;6184688;28;20415;-68
2022/11/11 11:35:42;;;;;;;4.15;3.17;;;;;;;4.71;66.21;97243.03;6184717;28;20132;-68
2022/11/11 11:39:07;;;;;;;4.13;3.42;;;;;;;4.69;66.48;97257.03;6185472;28;20038;-69
2022/11/11 11:42:30;;;;;;;3.55;3.00;;;;;;;4.78;66.40;97248.88;6184849;28;20405;-69
2022/11/11 11:45:37;;;;;;;3.97;2.72;;;;;;;4.63;66.53;97241.63;6184927;28;20046;-69
2022/11/11 11:49:14;;;;;;;3.33;2.78;;;;;;;4.61;66.48;97248.63;6182824;28;20038;-69
2022/11/11 11:52:22;;;;;;;3.70;2.67;;;;;;;4.47;67.18;97239.56;6182649;28;20050;-68
2022/11/11 11:55:48;;;;;;;4.15;2.67;;;;;;;4.57;67.20;97242.69;6168252;28;20490;-66
2022/11/11 11:59:04;;;;;;;2.97;2.33;;;;;;;4.57;66.97;97241.84;6183860;28;20042;-66
2022/11/11 12:02:45;;;;;;;3.13;2.72;;;;;;;4.45;67.56;97246.56;6183625;28;21164;-65
2022/11/11 12:06:06;;;;;;;3.47;3.00;;;;;;;4.34;67.83;97251.31;6187749;28;20140;-67
2022/11/11 12:09:20;;;;;;;3.58;2.58;;;;;;;4.26;68.45;97258.53;6200620;28;20077;-66
2022/11/11 12:12:24;;;;;;;3.35;2.70;;;;;;;4.28;68.10;97244.53;6183591;28;20413;-67
2022/11/11 12:15:47;;;;;;;3.63;3.00;;;;;;;4.39;67.54;97252.00;6184164;28;20042;-67
2022/11/11 12:19:00;;;;;;;3.67;3.00;;;;;;;4.25;68.15;97255.06;6181834;28;20413;-67
2022/11/11 12:22:07;;;;;;;3.55;2.75;;;;;;;4.07;68.31;97231.38;6181299;28;20061;-67
2022/11/11 12:25:21;;;;;;;4.57;3.22;;;;;;;4.28;67.97;97257.56;6177377;28;21042;-72
2022/11/11 12:28:59;;;;;;;4.65;3.15;;;;;;;4.08;68.51;97264.31;6190042;28;20145;-62
2022/11/11 12:32:51;;;;;;;3.78;2.75;;;;;;;4.27;68.10;97268.03;6152052;28;20058;-63
2022/11/11 12:36:14;;;;;;;2.92;2.47;;;;;;;4.25;68.03;97272.47;6155165;28;20046;-67
2022/11/11 12:39:35;;;;;;;4.13;2.83;;;;;;;4.21;68.25;97265.63;6188249;28;20045;-62
2022/11/11 12:43:12;;;;;;;4.25;2.85;;;;;;;4.10;68.66;97280.75;6179392;28;20050;-62
2022/11/11 12:46:50;;;;;;;2.75;2.42;;;;;;;4.09;68.90;97286.88;6184324;28;20046;-64
2022/11/11 12:50:17;;;;;;;3.33;2.70;;;;;;;4.05;69.00;97286.97;6181637;28;20392;-64
2022/11/11 12:53:45;;;;;;;4.82;3.05;;;;;;;4.09;68.81;97292.09;6183872;28;20046;-64
2022/11/11 12:56:49;;;;;;;3.97;2.72;;;;;;;4.12;68.73;97294.59;6187150;28;20053;-67
2022/11/11 13:00:11;;;;;;;3.65;3.33;;;;;;;4.34;68.00;97295.59;6185835;28;20042;-65
2022/11/11 13:03:45;;;;;;;4.13;3.22;;;;;;;4.36;67.72;97296.41;6184004;28;20050;-65
2022/11/11 13:07:10;;;;;;;4.28;3.13;;;;;;;4.31;67.83;97298.31;6178527;28;20085;-65
2022/11/11 13:10:54;;;;;;;2.75;2.55;;;;;;;4.26;68.00;97306.25;6182122;28;20053;-65
2022/11/11 13:14:22;;;;;;;3.63;2.67;;;;;;;4.44;67.02;97303.94;6184201;28;20051;-64
2022/11/11 13:17:29;;;;;;;2.50;2.28;;;;;;;4.19;67.79;97298.69;6186594;28;20061;-65
2022/11/11 13:20:36;;;;;;;2.85;2.33;;;;;;;4.27;67.56;97286.25;6185853;28;20066;-65
2022/11/11 13:23:45;;;;;;;3.17;2.53;;;;;;;3.99;68.25;97287.19;6184663;28;20042;-64
2022/11/11 13:27:23;;;;;;;3.75;2.58;;;;;;;4.04;68.30;97287.84;6186191;28;20049;-66
2022/11/11 13:30:54;;;;;;;3.65;2.80;;;;;;;4.05;68.27;97292.19;6172602;28;20046;-65
2022/11/11 13:34:01;;;;;;;4.18;3.13;;;;;;;3.93;68.21;97287.34;6181993;28;20050;-64
2022/11/11 13:37:17;;;;;;;3.35;2.90;;;;;;;3.91;68.59;97289.19;6177634;28;20055;-67
2022/11/11 13:40:30;;;;;;;3.53;2.38;;;;;;;4.11;67.69;97295.50;6183993;28;20046;-66
2022/11/11 13:43:50;;;;;;;3.33;2.45;;;;;;;3.86;68.66;97292.81;6182894;28;20050;-66
2022/11/11 13:47:26;;;;;;;4.15;3.13;;;;;;;4.11;67.83;97285.94;6186416;28;20042;-66
2022/11/11 13:50:31;;;;;;;3.17;2.25;;;;;;;3.92;68.24;97280.44;6180155;28;20559;-65
2022/11/11 13:53:37;;;;;;;3.08;2.40;;;;;;;3.95;68.14;97253.47;6183273;28;20042;-66
2022/11/11 13:56:43;;;;;;;2.80;2.45;;;;;;;3.95;67.98;97282.97;6184625;28;20051;-66
2022/11/11 14:00:15;;;;;;;3.42;2.33;;;;;;;4.05;68.17;97270.50;6186876;28;20081;-65
2022/11/11 14:03:17;;;;;;;2.88;2.45;;;;;;;4.08;67.57;97264.31;6170479;28;20050;-66
2022/11/11 14:06:26;;;;;;;3.17;2.72;;;;;;;4.09;67.76;97266.03;6192936;28;20132;-66
2022/11/11 14:09:53;;;;;;;3.47;2.33;;;;;;;4.06;67.87;97256.56;6194252;28;20042;-65
2022/11/11 14:13:20;;;;;;;2.72;2.17;;;;;;;4.04;67.69;97251.41;6194091;28;20513;-65
2022/11/11 14:16:35;;;;;;;4.18;2.42;;;;;;;3.95;68.23;97254.31;6192814;28;20050;-65
2022/11/11 14:19:44;;;;;;;3.15;2.03;;;;;;;3.87;68.36;97251.09;6195855;28;20572;-65
2022/11/11 14:22:48;;;;;;;2.40;2.03;;;;;;;3.94;68.26;97252.63;6183862;28;20509;-63
2022/11/11 14:26:13;;;;;;;2.80;2.13;;;;;;;3.95;68.05;97249.09;6182677;28;20501;-63
2022/11/11 14:29:19;;;;;;;3.35;2.15;;;;;;;3.79;68.69;97253.09;6183336;28;20050;-62
2022/11/11 14:32:32;;;;;;;4.68;2.85;;;;;;;3.82;68.63;97253.00;6180252;28;20600;-64
2022/11/11 14:35:45;;;;;;;3.35;2.47;;;;;;;3.88;68.48;97258.03;6181630;28;20038;-64
2022/11/11 14:39:05;;;;;;;2.97;2.30;;;;;;;3.75;68.94;97278.38;6185240;28;20048;-64
2022/11/11 14:42:44;;;;;;;3.10;2.55;;;;;;;3.67;69.22;97279.53;6177421;28;20051;-65
2022/11/11 14:45:50;;;;;;;2.47;1.70;;;;;;;3.96;68.95;97250.84;6182861;28;20042;-68
2022/11/11 14:48:59;;;;;;;4.55;2.85;;;;;;;3.88;68.70;97276.25;6181264;28;20054;-67
2022/11/11 14:52:02;;;;;;;4.32;2.35;;;;;;;3.88;68.40;97268.44;6182325;28;20046;-66
2022/11/11 14:55:24;;;;;;;4.85;2.97;;;;;;;3.72;68.99;97255.06;6186392;28;20073;-66
2022/11/11 14:58:33;;;;;;;3.50;2.22;;;;;;;3.79;68.78;97263.50;6185765;28;20038;-66
2022/11/11 15:01:39;;;;;;;3.67;2.38;;;;;;;3.63;69.08;97267.50;6183580;28;20065;-67
2022/11/11 15:04:47;;;;;;;3.58;2.00;;;;;;;3.51;69.54;97261.78;6183469;28;20038;-66
2022/11/11 15:08:11;;;;;;;3.20;2.15;;;;;;;3.62;69.21;97263.19;6184723;28;20046;-66
2022/11/11 15:11:38;;;;;;;2.97;2.17;;;;;;;3.54;69.45;97273.84;6183166;28;20176;-67
2022/11/11 15:14:58;;;;;;;3.45;2.20;;;;;;;3.66;68.79;97267.41;6184603;28;20057;-66
2022/11/11 15:18:18;;;;;;;2.45;2.10;;;;;;;3.53;69.46;97257.38;6184482;28;20053;-66
2022/11/11 15:22:06;;;;;;;2.10;1.83;;;;;;;3.56;69.28;97267.69;6182500;28;20046;-66
2022/11/11 15:25:16;;;;;;;1.98;1.77;;;;;;;3.60;69.29;97263.25;6182489;28;20042;-66
2022/11/11 15:28:51;;;;;;;2.13;1.60;;;;;;;3.64;68.90;97266.59;6179294;28;20038;-66
2022/11/11 15:32:07;;;;;;;1.42;1.23;;;;;;;3.72;68.56;97256.81;6184455;28;20432;-65
2022/11/11 15:35:23;;;;;;;1.92;1.50;;;;;;;3.71;68.69;97260.28;6183191;28;20493;-66
2022/11/11 15:38:33;;;;;;;1.48;1.20;;;;;;;3.83;67.71;97258.16;6183337;28;20057;-66
2022/11/11 15:41:40;;;;;;;1.48;1.10;;;;;;;3.89;67.03;97243.25;6182168;28;20049;-66
2022/11/11 15:44:45;;;;;;;0.90;0.90;;;;;;;3.80;67.31;97257.44;6183487;28;20057;-66
2022/11/11 15:47:59;;;;;;;0.68;0.68;;;;;;;3.87;66.77;97248.50;6182947;28;20819;-66
2022/11/11 15:51:21;;;;;;;2.97;1.60;;;;;;;3.85;67.08;97246.84;6184321;28;20494;-65
2022/11/11 15:54:25;;;;;;;2.70;1.25;;;;;;;3.82;67.01;97233.06;6182607;28;20125;-67
2022/11/11 15:57:32;;;;;;;2.05;1.52;;;;;;;3.84;66.98;97225.19;6186967;28;20152;-66
2022/11/11 16:00:37;;;;;;;1.67;1.10;;;;;;;3.80;67.19;97241.81;6188888;28;20034;-66
2022/11/11 16:03:44;;;;;;;1.48;1.00;;;;;;;3.91;66.53;97231.91;6188078;28;20429;-66
2022/11/11 16:06:51;;;;;;;1.83;1.13;;;;;;;3.91;66.30;97242.31;6190205;28;20042;-65
2022/11/11 16:09:58;;;;;;;1.75;1.25;;;;;;;3.98;66.01;97227.34;6197198;28;20048;-66
2022/11/11 16:13:17;;;;;;;2.40;1.17;;;;;;;3.90;66.33;97224.13;6190053;28;20082;-66
2022/11/11 16:16:28;;;;;;;0.90;0.88;;;;;;;3.73;66.99;97237.69;6188779;28;20062;-67
2022/11/11 16:19:41;;;;;;;0.82;0.73;;;;;;;3.75;66.87;97231.53;6189034;28;20049;-66